createdAt,value
2023-05-11T00:04:14.431Z,24.1
2023-05-11T00:09:50.894Z,23.8
2023-05-11T00:15:11.809Z,23.8
2023-05-11T00:20:48.767Z,23.6
2023-05-11T00:26:24.757Z,23.6
2023-05-11T00:31:47.066Z,23.5
2023-05-11T00:37:24.709Z,23.5
2023-05-11T00:43:02.706Z,23.5
2023-05-11T00:48:38.912Z,23.5
2023-05-11T00:54:14.884Z,23.6
2023-05-11T00:59:51.041Z,23.7
2023-05-11T01:05:28.223Z,23.9
2023-05-11T01:11:04.270Z,24
2023-05-11T01:16:56.576Z,24.1
2023-05-11T01:22:32.887Z,24.3
2023-05-11T01:28:08.661Z,24.4
2023-05-11T01:34:02.993Z,24.6
2023-05-11T01:39:54.235Z,24.8
2023-05-11T01:45:45.676Z,24.9
2023-05-11T01:51:22.456Z,24.9
2023-05-11T01:57:13.859Z,24.9
2023-05-11T02:03:05.663Z,24.9
2023-05-11T02:08:57.534Z,25
2023-05-11T02:14:48.952Z,25.1
2023-05-11T02:20:41.396Z,25.1
2023-05-11T02:26:32.902Z,25
2023-05-11T02:32:09.505Z,24.9
2023-05-11T02:38:01.528Z,24.9
2023-05-11T02:43:53.809Z,24.8
2023-05-11T02:49:45.911Z,24.7
2023-05-11T02:55:37.940Z,24.7
2023-05-11T03:01:30.928Z,24.6
2023-05-11T03:07:24.081Z,24.5
2023-05-11T03:13:17.485Z,24.4
2023-05-11T03:19:09.687Z,24.3
2023-05-11T03:25:01.174Z,24.2
2023-05-11T03:30:53.145Z,24.1
2023-05-11T03:36:47.743Z,23.9
2023-05-11T03:42:39.279Z,23.8
2023-05-11T03:48:33.355Z,23.7
2023-05-11T03:54:25.236Z,23.6
2023-05-11T04:00:16.788Z,23.5
2023-05-11T04:06:09.899Z,23.4
2023-05-11T04:12:01.273Z,23.3
2023-05-11T04:17:53.498Z,23.1
2023-05-11T04:23:45.390Z,22.9
2023-05-11T04:29:36.767Z,22.8
2023-05-11T04:35:28.375Z,22.7
2023-05-11T04:41:20.371Z,22.6
2023-05-11T04:47:11.469Z,22.4
2023-05-11T04:52:47.792Z,22.3
2023-05-11T04:58:24.440Z,22.1
2023-05-11T05:04:00.919Z,21.9
2023-05-11T05:09:39.348Z,21.8
2023-05-11T05:15:30.464Z,21.6
2023-05-11T05:21:22.073Z,21.4
2023-05-11T05:27:13.317Z,21.3
2023-05-11T05:32:50.476Z,21.1
2023-05-11T05:38:26.915Z,20.9
2023-05-11T05:44:18.106Z,20.8
2023-05-11T05:50:12.240Z,20.6
2023-05-11T05:56:03.656Z,20.4
2023-05-11T06:01:57.199Z,20.3
2023-05-11T06:08:02.200Z,20.1
2023-05-11T06:13:47.128Z,19.9
2023-05-11T06:19:39.368Z,19.8
2023-05-11T06:25:30.515Z,19.7
2023-05-11T06:31:10.226Z,19.6
2023-05-11T06:36:31.849Z,19.4
2023-05-11T06:42:23.602Z,19.3
2023-05-11T06:48:16.503Z,19.2
2023-05-11T06:54:11.853Z,19.1
2023-05-11T07:00:03.025Z,19
2023-05-11T07:05:55.300Z,18.9
2023-05-11T07:11:47.888Z,18.8
2023-05-11T07:17:40.267Z,18.6
2023-05-11T07:23:16.685Z,18.4
2023-05-11T07:28:37.801Z,18.4
2023-05-11T07:34:15.595Z,18.4
2023-05-11T07:39:52.202Z,18.3
2023-05-11T07:45:46.930Z,18.3
2023-05-11T07:52:13.156Z,18.3
2023-05-11T07:57:49.864Z,18.2
2023-05-11T08:03:42.652Z,18.1
2023-05-11T08:09:37.503Z,18.1
2023-05-11T08:15:14.289Z,18.1
2023-05-11T08:21:06.929Z,18
2023-05-11T08:27:01.722Z,17.9
2023-05-11T08:38:29.024Z,17.9
2023-05-11T08:44:21.915Z,17.9
2023-05-11T08:50:32.756Z,17.8
2023-05-11T08:56:25.057Z,17.8
2023-05-11T09:02:17.367Z,17.8
2023-05-11T09:08:10.076Z,17.8
2023-05-11T09:13:48.623Z,17.8
2023-05-11T09:20:03.478Z,17.7
2023-05-11T09:25:24.658Z,17.7
2023-05-11T09:31:31.954Z,17.7
2023-05-11T09:37:12.095Z,17.6
2023-05-11T09:43:16.556Z,17.6
2023-05-11T09:49:12.561Z,17.6
2023-05-11T09:55:07.788Z,17.6
2023-05-11T10:00:43.414Z,17.6
2023-05-11T10:06:20.509Z,17.6
2023-05-11T10:12:16.345Z,17.6
2023-05-11T10:17:53.801Z,17.6
2023-05-11T10:23:46.432Z,17.5
2023-05-11T10:29:39.927Z,17.5
2023-05-11T10:35:31.517Z,17.5
2023-05-11T10:41:23.673Z,17.5
2023-05-11T10:47:18.940Z,17.5
2023-05-11T10:53:11.809Z,17.4
2023-05-11T10:59:05.165Z,17.4
2023-05-11T11:04:57.553Z,17.4
2023-05-11T11:10:49.324Z,17.4
2023-05-11T11:16:42.376Z,17.4
2023-05-11T11:22:34.328Z,17.4
2023-05-11T11:28:25.269Z,17.4
2023-05-11T11:34:17.192Z,17.4
2023-05-11T11:40:14.413Z,17.4
2023-05-11T11:46:23.182Z,17.4
2023-05-11T11:52:15.221Z,17.4
2023-05-11T11:58:07.816Z,17.4
2023-05-11T12:04:01.857Z,17.4
2023-05-11T12:09:54.622Z,17.4
2023-05-11T12:15:46.345Z,17.4
2023-05-11T12:21:37.851Z,17.4
2023-05-11T12:27:29.667Z,17.4
2023-05-11T12:33:21.839Z,17.4
2023-05-11T12:39:13.053Z,17.4
2023-05-11T12:45:04.130Z,17.4
2023-05-11T12:50:56.245Z,17.4
2023-05-11T12:56:47.514Z,17.4
2023-05-11T13:02:39.209Z,17.4
2023-05-11T13:08:15.936Z,17.4
2023-05-11T13:14:10.050Z,17.4
2023-05-11T13:20:03.017Z,17.4
2023-05-11T13:25:55.892Z,17.4
2023-05-11T13:31:59.621Z,17.4
2023-05-11T13:37:36.206Z,17.4
2023-05-11T13:43:27.234Z,17.3
2023-05-11T13:49:23.043Z,17.4
2023-05-11T13:55:14.846Z,17.3
2023-05-11T14:01:23.539Z,17.4
2023-05-11T14:07:18.779Z,17.3
2023-05-11T14:13:23.248Z,17.3
2023-05-11T14:19:17.370Z,17.4
2023-05-11T14:25:17.128Z,17.3
2023-05-11T14:31:12.034Z,17.3
2023-05-11T14:37:05.327Z,17.3
2023-05-11T14:42:57.533Z,17.3
2023-05-11T14:48:50.412Z,17.3
2023-05-11T14:54:42.055Z,17.3
2023-05-11T15:00:48.615Z,17.3
2023-05-11T15:06:42.164Z,17.3
2023-05-11T15:12:49.652Z,17.3
2023-05-11T15:18:43.003Z,17.3
2023-05-11T15:24:35.570Z,17.3
2023-05-11T15:30:28.697Z,17.3
2023-05-11T15:36:38.423Z,17.3
2023-05-11T15:42:32.358Z,17.3
2023-05-11T15:48:25.442Z,17.3
2023-05-11T15:54:04.593Z,17.3
2023-05-11T15:59:58.573Z,17.3
2023-05-11T16:05:53.949Z,17.3
2023-05-11T16:11:47.365Z,17.3
2023-05-11T16:17:42.949Z,17.3
2023-05-11T16:23:39.091Z,17.3
2023-05-11T16:29:35.738Z,17.3
2023-05-11T16:35:45.392Z,17.3
2023-05-11T16:41:41.901Z,17.3
2023-05-11T16:47:37.070Z,17.3
2023-05-11T16:53:36.904Z,17.3
2023-05-11T16:59:36.716Z,17.3
2023-05-11T17:05:39.843Z,17.3
2023-05-11T17:11:40.024Z,17.3
2023-05-11T17:17:41.292Z,17.3
2023-05-11T17:23:41.714Z,17.3
2023-05-11T17:29:53.874Z,17.3
2023-05-11T17:36:28.106Z,17.3
2023-05-11T17:42:37.701Z,17.3
2023-05-11T17:48:39.790Z,17.2
2023-05-11T17:54:40.309Z,17.2
2023-05-11T18:00:41.358Z,17.3
2023-05-11T18:06:56.498Z,17.2
2023-05-11T18:12:57.921Z,17.2
2023-05-11T18:18:46.052Z,17.3
2023-05-11T18:24:47.216Z,17.2
2023-05-11T18:30:47.196Z,17.2
2023-05-11T18:36:31.897Z,17.2
2023-05-11T18:42:34.006Z,17.2
2023-05-11T18:48:33.851Z,17.2
2023-05-11T18:54:37.856Z,17.2
2023-05-11T19:00:52.817Z,17.2
2023-05-11T19:07:05.750Z,17.2
2023-05-11T19:13:09.612Z,17.2
2023-05-11T19:19:12.363Z,17.2
2023-05-11T19:25:16.385Z,17.2
2023-05-11T19:31:25.109Z,17.2
2023-05-11T19:37:26.901Z,17.2
2023-05-11T19:44:19.623Z,17.2
2023-05-11T19:50:23.666Z,17.2
2023-05-11T19:56:25.111Z,17.2
2023-05-11T20:06:25.285Z,17.2
2023-05-11T20:12:28.711Z,17.2
2023-05-11T20:18:29.957Z,17.2
2023-05-11T20:24:31.056Z,17.2
2023-05-11T20:30:32.575Z,17.2
2023-05-11T20:36:46.850Z,17.2
2023-05-11T20:42:45.976Z,17.2
2023-05-11T20:48:57.319Z,17.1
2023-05-11T20:55:04.822Z,17.2
2023-05-11T21:01:13.432Z,17.2
2023-05-11T21:07:14.281Z,17.1
2023-05-11T21:13:11.763Z,17.1
2023-05-11T21:19:10.489Z,17.1
2023-05-11T21:24:50.630Z,17.1
2023-05-11T21:30:29.563Z,17.1
2023-05-11T21:35:52.756Z,17.1
2023-05-11T21:41:30.103Z,17.1
2023-05-11T21:46:50.624Z,17.1
2023-05-11T21:52:26.584Z,17.1
2023-05-11T21:58:02.840Z,17.1
2023-05-11T22:03:40.637Z,17.1
2023-05-11T22:09:24.412Z,17.1
2023-05-11T22:15:00.898Z,17.1
2023-05-11T22:20:37.278Z,17.1
2023-05-11T22:26:12.978Z,17.1
2023-05-11T22:31:49.289Z,17.1
2023-05-11T22:37:10.094Z,17.1
2023-05-11T22:42:30.883Z,17.1
2023-05-11T22:47:52.341Z,17.1
2023-05-11T22:53:12.933Z,17.1
2023-05-11T22:58:18.304Z,17.1
2023-05-11T23:09:17.137Z,17.1
